sensor_id;sensor_type;location;lat;lon;timestamp;pressure;altitude;pressure_sealevel;temperature;humidity
79347;BME280;68815;48.810;44.482;2023-03-31T00:02:40;100027;;;0.5;71.5
79347;BME280;68815;48.810;44.482;2023-03-31T00:05:42;100023;;;0.5;71.4
79347;BME280;68815;48.810;44.482;2023-03-31T00:08:44;100025;;;0.5;71.6
79347;BME280;68815;48.810;44.482;2023-03-31T00:11:45;100025;;;0.5;71.3
79347;BME280;68815;48.810;44.482;2023-03-31T00:14:47;100025;;;0.5;71.4
79347;BME280;68815;48.810;44.482;2023-03-31T00:17:49;100030;;;0.6;71.3
79347;BME280;68815;48.810;44.482;2023-03-31T00:20:50;100037;;;0.5;71.1
79347;BME280;68815;48.810;44.482;2023-03-31T00:23:53;100035;;;0.5;71.6
79347;BME280;68815;48.810;44.482;2023-03-31T00:26:54;100034;;;0.6;71.6
79347;BME280;68815;48.810;44.482;2023-03-31T00:29:56;100034;;;0.6;71.2
79347;BME280;68815;48.810;44.482;2023-03-31T00:32:57;100041;;;0.7;70.9
79347;BME280;68815;48.810;44.482;2023-03-31T00:35:59;100044;;;0.7;70.9
79347;BME280;68815;48.810;44.482;2023-03-31T00:39:02;100040;;;0.8;70.7
79347;BME280;68815;48.810;44.482;2023-03-31T00:42:04;100035;;;0.9;70.6
79347;BME280;68815;48.810;44.482;2023-03-31T00:45:22;100028;;;0.8;70.5
79347;BME280;68815;48.810;44.482;2023-03-31T00:48:25;100028;;;0.9;70.4
79347;BME280;68815;48.810;44.482;2023-03-31T00:51:28;100030;;;0.8;70.4
79347;BME280;68815;48.810;44.482;2023-03-31T00:54:32;100033;;;0.8;70.4
79347;BME280;68815;48.810;44.482;2023-03-31T00:57:37;100033;;;0.8;70.7
79347;BME280;68815;48.810;44.482;2023-03-31T01:00:39;100031;;;0.8;70.3
79347;BME280;68815;48.810;44.482;2023-03-31T01:03:42;100030;;;0.7;70.8
79347;BME280;68815;48.810;44.482;2023-03-31T01:06:50;100034;;;0.8;70.6
79347;BME280;68815;48.810;44.482;2023-03-31T01:09:57;100025;;;0.8;70.3
79347;BME280;68815;48.810;44.482;2023-03-31T01:13:00;100025;;;0.8;70.3
79347;BME280;68815;48.810;44.482;2023-03-31T01:16:02;100025;;;0.7;70.5
79347;BME280;68815;48.810;44.482;2023-03-31T01:19:03;100028;;;0.5;71.1
79347;BME280;68815;48.810;44.482;2023-03-31T01:22:32;100019;;;0.5;71.3
79347;BME280;68815;48.810;44.482;2023-03-31T01:25:50;100033;;;0.4;71.7
79347;BME280;68815;48.810;44.482;2023-03-31T01:29:03;100033;;;0.4;71
79347;BME280;68815;48.810;44.482;2023-03-31T01:32:28;100036;;;0.3;71.2
79347;BME280;68815;48.810;44.482;2023-03-31T01:35:53;100034;;;0.5;70.8
79347;BME280;68815;48.810;44.482;2023-03-31T01:39:06;100043;;;0.4;70.6
79347;BME280;68815;48.810;44.482;2023-03-31T01:42:13;100038;;;0.4;70.6
79347;BME280;68815;48.810;44.482;2023-03-31T01:45:24;100044;;;0.5;70.1
79347;BME280;68815;48.810;44.482;2023-03-31T01:48:32;100043;;;0.4;70.1
79347;BME280;68815;48.810;44.482;2023-03-31T01:51:42;100041;;;0.4;70.1
79347;BME280;68815;48.810;44.482;2023-03-31T01:54:49;100048;;;0.3;70.8
79347;BME280;68815;48.810;44.482;2023-03-31T01:57:58;100046;;;0.5;69.9
79347;BME280;68815;48.810;44.482;2023-03-31T02:01:06;100042;;;0.3;70.1
79347;BME280;68815;48.810;44.482;2023-03-31T02:04:14;100050;;;0.4;70.1
79347;BME280;68815;48.810;44.482;2023-03-31T02:07:22;100054;;;0.4;69.7
79347;BME280;68815;48.810;44.482;2023-03-31T02:10:28;100049;;;0.4;69.9
79347;BME280;68815;48.810;44.482;2023-03-31T02:13:33;100059;;;0.4;70.3
79347;BME280;68815;48.810;44.482;2023-03-31T02:16:38;100061;;;0.4;70
79347;BME280;68815;48.810;44.482;2023-03-31T02:19:43;100057;;;0.5;69.7
79347;BME280;68815;48.810;44.482;2023-03-31T02:22:48;100062;;;0.5;69.6
79347;BME280;68815;48.810;44.482;2023-03-31T02:25:52;100052;;;0.5;69.7
79347;BME280;68815;48.810;44.482;2023-03-31T02:28:55;100054;;;0.4;69.6
79347;BME280;68815;48.810;44.482;2023-03-31T02:32:01;100050;;;0.4;70.1
79347;BME280;68815;48.810;44.482;2023-03-31T02:35:05;100046;;;0.3;70.2
79347;BME280;68815;48.810;44.482;2023-03-31T02:38:08;100042;;;0.2;70.6
79347;BME280;68815;48.810;44.482;2023-03-31T02:41:09;100050;;;0.3;70.6
79347;BME280;68815;48.810;44.482;2023-03-31T02:44:11;100034;;;0.2;70.9
79347;BME280;68815;48.810;44.482;2023-03-31T02:47:14;100042;;;0.2;71
79347;BME280;68815;48.810;44.482;2023-03-31T02:50:16;100039;;;0.2;70.8
79347;BME280;68815;48.810;44.482;2023-03-31T02:53:22;100038;;;0.2;71
79347;BME280;68815;48.810;44.482;2023-03-31T02:56:34;100034;;;0.1;71.1
79347;BME280;68815;48.810;44.482;2023-03-31T02:59:47;100028;;;-0.1;71.3
79347;BME280;68815;48.810;44.482;2023-03-31T03:02:57;100035;;;0;71.2
79347;BME280;68815;48.810;44.482;2023-03-31T03:06:08;100051;;;0.1;71.4
79347;BME280;68815;48.810;44.482;2023-03-31T03:09:26;100046;;;0;71.5
79347;BME280;68815;48.810;44.482;2023-03-31T03:12:35;100045;;;-0.1;72
79347;BME280;68815;48.810;44.482;2023-03-31T03:15:46;100049;;;0;71.9
79347;BME280;68815;48.810;44.482;2023-03-31T03:18:54;100048;;;0.4;71.1
79347;BME280;68815;48.810;44.482;2023-03-31T03:21:57;100045;;;0.6;70.7
79347;BME280;68815;48.810;44.482;2023-03-31T03:24:58;100039;;;0.7;70.1
79347;BME280;68815;48.810;44.482;2023-03-31T03:27:59;100039;;;0.7;70.2
79347;BME280;68815;48.810;44.482;2023-03-31T03:31:01;100050;;;0.8;69.7
79347;BME280;68815;48.810;44.482;2023-03-31T03:34:02;100046;;;1.1;69.4
79347;BME280;68815;48.810;44.482;2023-03-31T03:37:04;100039;;;1.2;68
79347;BME280;68815;48.810;44.482;2023-03-31T03:40:06;100042;;;1.4;68.1
79347;BME280;68815;48.810;44.482;2023-03-31T03:43:08;100033;;;1.4;68.1
79347;BME280;68815;48.810;44.482;2023-03-31T03:46:09;100030;;;1.5;67.3
79347;BME280;68815;48.810;44.482;2023-03-31T03:49:10;100025;;;1.7;67.1
79347;BME280;68815;48.810;44.482;2023-03-31T03:52:12;100016;;;1.7;66.9
79347;BME280;68815;48.810;44.482;2023-03-31T03:55:13;100017;;;1.9;66.2
79347;BME280;68815;48.810;44.482;2023-03-31T03:58:15;100010;;;2.1;66
79347;BME280;68815;48.810;44.482;2023-03-31T04:01:17;100002;;;2.3;65.1
79347;BME280;68815;48.810;44.482;2023-03-31T04:04:19;100004;;;2.5;64.7
79347;BME280;68815;48.810;44.482;2023-03-31T04:07:23;100007;;;3.1;63.2
79347;BME280;68815;48.810;44.482;2023-03-31T04:10:29;99999;;;3.3;62.2
79347;BME280;68815;48.810;44.482;2023-03-31T04:13:30;99997;;;3.3;61.3
79347;BME280;68815;48.810;44.482;2023-03-31T04:16:31;99991;;;3.5;60.8
79347;BME280;68815;48.810;44.482;2023-03-31T04:19:33;99997;;;3.7;60.8
79347;BME280;68815;48.810;44.482;2023-03-31T04:22:34;99991;;;3.7;60.4
79347;BME280;68815;48.810;44.482;2023-03-31T04:25:36;99993;;;3.7;60.6
79347;BME280;68815;48.810;44.482;2023-03-31T04:32:09;99986;;;4.5;58.7
79347;BME280;68815;48.810;44.482;2023-03-31T04:35:10;99984;;;4.8;58
79347;BME280;68815;48.810;44.482;2023-03-31T04:38:12;99998;;;4.8;57.7
79347;BME280;68815;48.810;44.482;2023-03-31T04:41:13;100003;;;5.2;56.6
79347;BME280;68815;48.810;44.482;2023-03-31T04:44:15;100004;;;5.2;56.7
79347;BME280;68815;48.810;44.482;2023-03-31T04:47:16;100005;;;4.5;57.7
79347;BME280;68815;48.810;44.482;2023-03-31T04:50:17;100007;;;4;59.4
79347;BME280;68815;48.810;44.482;2023-03-31T04:53:19;100010;;;3.9;60
79347;BME280;68815;48.810;44.482;2023-03-31T04:56:20;100024;;;3.7;60.8
79347;BME280;68815;48.810;44.482;2023-03-31T04:59:22;100019;;;3.4;62
79347;BME280;68815;48.810;44.482;2023-03-31T05:02:23;100022;;;4.3;59.9
79347;BME280;68815;48.810;44.482;2023-03-31T05:05:25;100013;;;4.7;58.6
79347;BME280;68815;48.810;44.482;2023-03-31T05:08:26;100014;;;5.4;57.2
79347;BME280;68815;48.810;44.482;2023-03-31T05:11:28;99993;;;6;54.4
79347;BME280;68815;48.810;44.482;2023-03-31T05:14:29;100006;;;6.2;54.2
79347;BME280;68815;48.810;44.482;2023-03-31T05:17:31;100009;;;6.7;53.5
79347;BME280;68815;48.810;44.482;2023-03-31T05:20:33;100007;;;6.4;53.6
79347;BME280;68815;48.810;44.482;2023-03-31T05:23:35;100007;;;5.9;55
79347;BME280;68815;48.810;44.482;2023-03-31T05:26:36;100032;;;5.6;56.1
79347;BME280;68815;48.810;44.482;2023-03-31T05:29:38;100040;;;5.4;56.6
79347;BME280;68815;48.810;44.482;2023-03-31T05:32:40;100033;;;5;57.4
79347;BME280;68815;48.810;44.482;2023-03-31T05:35:43;100043;;;5.3;57.4
79347;BME280;68815;48.810;44.482;2023-03-31T05:38:44;100049;;;5.3;57.4
79347;BME280;68815;48.810;44.482;2023-03-31T05:41:46;100040;;;5.4;57.1
79347;BME280;68815;48.810;44.482;2023-03-31T05:44:47;100031;;;5.1;56.8
79347;BME280;68815;48.810;44.482;2023-03-31T05:47:48;100040;;;4.7;58.6
79347;BME280;68815;48.810;44.482;2023-03-31T05:50:50;100040;;;4.5;59.2
79347;BME280;68815;48.810;44.482;2023-03-31T05:53:53;100034;;;4.8;58.6
79347;BME280;68815;48.810;44.482;2023-03-31T05:56:54;100036;;;5;57.9
79347;BME280;68815;48.810;44.482;2023-03-31T05:59:55;100034;;;5.4;57
79347;BME280;68815;48.810;44.482;2023-03-31T06:02:57;100036;;;5.2;57.1
79347;BME280;68815;48.810;44.482;2023-03-31T06:09:30;100041;;;5.8;56.5
79347;BME280;68815;48.810;44.482;2023-03-31T06:16:02;100054;;;5;58.5
79347;BME280;68815;48.810;44.482;2023-03-31T06:22:30;100055;;;5.4;57
79347;BME280;68815;48.810;44.482;2023-03-31T06:25:31;100051;;;6.4;54.7
79347;BME280;68815;48.810;44.482;2023-03-31T06:28:33;100052;;;7;53.6
79347;BME280;68815;48.810;44.482;2023-03-31T06:31:35;100051;;;7.2;52.8
79347;BME280;68815;48.810;44.482;2023-03-31T06:34:36;100056;;;7;52.6
79347;BME280;68815;48.810;44.482;2023-03-31T06:37:38;100072;;;6;55.4
79347;BME280;68815;48.810;44.482;2023-03-31T06:40:40;100070;;;5.5;56.7
79347;BME280;68815;48.810;44.482;2023-03-31T06:43:42;100060;;;5.6;56.8
79347;BME280;68815;48.810;44.482;2023-03-31T06:46:43;100062;;;5.6;56.9
79347;BME280;68815;48.810;44.482;2023-03-31T06:49:45;100065;;;5.5;57.1
79347;BME280;68815;48.810;44.482;2023-03-31T06:56:17;100073;;;4.8;59.3
79347;BME280;68815;48.810;44.482;2023-03-31T06:59:19;100078;;;4.9;59.5
79347;BME280;68815;48.810;44.482;2023-03-31T07:02:21;100062;;;4.6;60
79347;BME280;68815;48.810;44.482;2023-03-31T07:05:22;100076;;;4.7;60.6
79347;BME280;68815;48.810;44.482;2023-03-31T07:08:23;100085;;;4.9;60.1
79347;BME280;68815;48.810;44.482;2023-03-31T07:11:25;100072;;;4.7;59.8
79347;BME280;68815;48.810;44.482;2023-03-31T07:14:26;100077;;;4.9;59.8
79347;BME280;68815;48.810;44.482;2023-03-31T07:17:28;100069;;;4.9;60.1
79347;BME280;68815;48.810;44.482;2023-03-31T07:20:29;100069;;;5;59.6
79347;BME280;68815;48.810;44.482;2023-03-31T07:23:30;100061;;;5.1;59.2
79347;BME280;68815;48.810;44.482;2023-03-31T07:26:32;100066;;;5.2;59.3
79347;BME280;68815;48.810;44.482;2023-03-31T07:29:33;100076;;;5.4;58.7
79347;BME280;68815;48.810;44.482;2023-03-31T07:32:35;100073;;;5.4;59.4
79347;BME280;68815;48.810;44.482;2023-03-31T07:35:37;100062;;;5.3;59.6
79347;BME280;68815;48.810;44.482;2023-03-31T07:38:40;100069;;;5.3;60.1
79347;BME280;68815;48.810;44.482;2023-03-31T07:41:41;100069;;;5.1;60.7
79347;BME280;68815;48.810;44.482;2023-03-31T07:44:43;100074;;;5.1;60.4
79347;BME280;68815;48.810;44.482;2023-03-31T07:47:45;100074;;;4.8;61.4
79347;BME280;68815;48.810;44.482;2023-03-31T07:50:47;100078;;;4.7;61.4
79347;BME280;68815;48.810;44.482;2023-03-31T07:53:49;100073;;;4.6;62.2
79347;BME280;68815;48.810;44.482;2023-03-31T07:56:51;100084;;;4.4;62.6
79347;BME280;68815;48.810;44.482;2023-03-31T07:59:53;100084;;;4.4;62.7
79347;BME280;68815;48.810;44.482;2023-03-31T08:06:25;100098;;;4.3;63.3
79347;BME280;68815;48.810;44.482;2023-03-31T08:12:58;100097;;;4.4;63.5
79347;BME280;68815;48.810;44.482;2023-03-31T08:16:10;100104;;;4.6;63.4
79347;BME280;68815;48.810;44.482;2023-03-31T08:19:12;100103;;;4.6;63.5
79347;BME280;68815;48.810;44.482;2023-03-31T08:22:14;100097;;;4.5;63.1
79347;BME280;68815;48.810;44.482;2023-03-31T08:25:15;100106;;;4.5;63.3
79347;BME280;68815;48.810;44.482;2023-03-31T08:28:16;100107;;;4.4;63.8
79347;BME280;68815;48.810;44.482;2023-03-31T08:31:19;100108;;;4.4;64
79347;BME280;68815;48.810;44.482;2023-03-31T08:34:21;100103;;;4.4;63.7
79347;BME280;68815;48.810;44.482;2023-03-31T08:37:22;100118;;;4.4;63.8
79347;BME280;68815;48.810;44.482;2023-03-31T08:40:26;100118;;;4.3;64.1
79347;BME280;68815;48.810;44.482;2023-03-31T08:43:31;100107;;;4.4;64
79347;BME280;68815;48.810;44.482;2023-03-31T08:46:34;100108;;;4.3;64.3
79347;BME280;68815;48.810;44.482;2023-03-31T08:49:39;100114;;;4.4;64.2
79347;BME280;68815;48.810;44.482;2023-03-31T08:52:46;100115;;;4.5;64.1
79347;BME280;68815;48.810;44.482;2023-03-31T08:55:55;100105;;;4.7;63.5
79347;BME280;68815;48.810;44.482;2023-03-31T08:58:58;100103;;;4.7;63.4
79347;BME280;68815;48.810;44.482;2023-03-31T09:02:04;100097;;;4.7;63.7
79347;BME280;68815;48.810;44.482;2023-03-31T09:05:19;100109;;;4.6;63.2
79347;BME280;68815;48.810;44.482;2023-03-31T09:08:31;100109;;;4.6;63.6
79347;BME280;68815;48.810;44.482;2023-03-31T09:11:35;100105;;;4.5;63.8
79347;BME280;68815;48.810;44.482;2023-03-31T09:14:40;100111;;;4.8;63.2
79347;BME280;68815;48.810;44.482;2023-03-31T09:17:46;100122;;;4.8;62.4
79347;BME280;68815;48.810;44.482;2023-03-31T09:20:51;100099;;;4.7;62.8
79347;BME280;68815;48.810;44.482;2023-03-31T09:23:57;100118;;;4.7;62.8
79347;BME280;68815;48.810;44.482;2023-03-31T09:27:02;100112;;;4.7;62.5
79347;BME280;68815;48.810;44.482;2023-03-31T09:30:13;100118;;;4.7;62
79347;BME280;68815;48.810;44.482;2023-03-31T09:33:18;100093;;;4.7;62.1
79347;BME280;68815;48.810;44.482;2023-03-31T09:36:20;100111;;;4.7;62.8
79347;BME280;68815;48.810;44.482;2023-03-31T09:39:22;100100;;;4.7;62.4
79347;BME280;68815;48.810;44.482;2023-03-31T09:42:23;100089;;;4.7;61.9
79347;BME280;68815;48.810;44.482;2023-03-31T09:45:26;100104;;;4.8;61.5
79347;BME280;68815;48.810;44.482;2023-03-31T09:48:33;100102;;;4.9;61.6
79347;BME280;68815;48.810;44.482;2023-03-31T09:51:36;100093;;;4.9;60.9
79347;BME280;68815;48.810;44.482;2023-03-31T09:54:43;100098;;;5.1;60.4
79347;BME280;68815;48.810;44.482;2023-03-31T09:57:47;100098;;;5.2;60.7
79347;BME280;68815;48.810;44.482;2023-03-31T10:00:57;100101;;;5.2;60.1
79347;BME280;68815;48.810;44.482;2023-03-31T10:04:00;100103;;;5;60.6
79347;BME280;68815;48.810;44.482;2023-03-31T10:07:03;100102;;;5.1;60.7
79347;BME280;68815;48.810;44.482;2023-03-31T10:10:09;100095;;;5.1;60.2
79347;BME280;68815;48.810;44.482;2023-03-31T10:13:22;100091;;;5.1;60.7
79347;BME280;68815;48.810;44.482;2023-03-31T10:16:29;100094;;;4.8;61.2
79347;BME280;68815;48.810;44.482;2023-03-31T10:19:32;100100;;;4.7;62.3
79347;BME280;68815;48.810;44.482;2023-03-31T10:22:42;100086;;;4.7;62.5
79347;BME280;68815;48.810;44.482;2023-03-31T10:25:45;100094;;;4.7;62.3
79347;BME280;68815;48.810;44.482;2023-03-31T10:28:47;100099;;;4.6;63.5
79347;BME280;68815;48.810;44.482;2023-03-31T10:31:50;100086;;;4.6;63.6
79347;BME280;68815;48.810;44.482;2023-03-31T10:34:51;100099;;;4.7;63.2
79347;BME280;68815;48.810;44.482;2023-03-31T10:37:55;100102;;;4.7;63.2
79347;BME280;68815;48.810;44.482;2023-03-31T10:40:58;100111;;;4.7;63.6
79347;BME280;68815;48.810;44.482;2023-03-31T10:44:02;100121;;;4.8;63.2
79347;BME280;68815;48.810;44.482;2023-03-31T10:47:06;100123;;;4.4;65.8
79347;BME280;68815;48.810;44.482;2023-03-31T10:50:17;100124;;;4.5;66.6
79347;BME280;68815;48.810;44.482;2023-03-31T10:53:19;100134;;;4.5;67.4
79347;BME280;68815;48.810;44.482;2023-03-31T11:00:00;100146;;;4.2;70.2
79347;BME280;68815;48.810;44.482;2023-03-31T11:03:13;100139;;;4.4;70.4
79347;BME280;68815;48.810;44.482;2023-03-31T11:06:21;100138;;;4.5;71.6
79347;BME280;68815;48.810;44.482;2023-03-31T11:09:35;100118;;;4.8;69.2
79347;BME280;68815;48.810;44.482;2023-03-31T11:12:43;100138;;;4.9;69.1
79347;BME280;68815;48.810;44.482;2023-03-31T11:15:53;100143;;;5.1;68.5
79347;BME280;68815;48.810;44.482;2023-03-31T11:19:04;100146;;;5.2;67.8
79347;BME280;68815;48.810;44.482;2023-03-31T11:22:11;100130;;;5;66.7
79347;BME280;68815;48.810;44.482;2023-03-31T11:25:20;100136;;;4.9;66.4
79347;BME280;68815;48.810;44.482;2023-03-31T11:28:36;100147;;;4.9;66.5
79347;BME280;68815;48.810;44.482;2023-03-31T11:31:47;100135;;;5;66.9
79347;BME280;68815;48.810;44.482;2023-03-31T11:35:00;100140;;;5.1;66.7
79347;BME280;68815;48.810;44.482;2023-03-31T11:38:15;100135;;;5.1;66
79347;BME280;68815;48.810;44.482;2023-03-31T11:41:23;100137;;;5;66.2
79347;BME280;68815;48.810;44.482;2023-03-31T11:44:35;100138;;;4.9;67.2
79347;BME280;68815;48.810;44.482;2023-03-31T11:47:40;100128;;;4.8;66.8
79347;BME280;68815;48.810;44.482;2023-03-31T11:50:45;100133;;;4.8;67
79347;BME280;68815;48.810;44.482;2023-03-31T11:53:49;100132;;;4.8;66.7
79347;BME280;68815;48.810;44.482;2023-03-31T11:56:53;100137;;;4.8;66.5
79347;BME280;68815;48.810;44.482;2023-03-31T11:59:59;100138;;;4.8;66.7
79347;BME280;68815;48.810;44.482;2023-03-31T12:03:08;100151;;;4.7;67.5
79347;BME280;68815;48.810;44.482;2023-03-31T12:06:13;100157;;;4.7;67.9
79347;BME280;68815;48.810;44.482;2023-03-31T12:09:21;100155;;;4.6;68.2
79347;BME280;68815;48.810;44.482;2023-03-31T12:12:28;100159;;;4.8;67.9
79347;BME280;68815;48.810;44.482;2023-03-31T12:15:33;100164;;;4.9;67.2
79347;BME280;68815;48.810;44.482;2023-03-31T12:18:41;100156;;;4.9;66.7
79347;BME280;68815;48.810;44.482;2023-03-31T12:21:47;100172;;;4.8;66.1
79347;BME280;68815;48.810;44.482;2023-03-31T12:24:51;100171;;;4.9;66.1
79347;BME280;68815;48.810;44.482;2023-03-31T12:27:52;100168;;;5.2;66
79347;BME280;68815;48.810;44.482;2023-03-31T12:30:54;100169;;;5;67.2
79347;BME280;68815;48.810;44.482;2023-03-31T12:33:59;100174;;;5;67.2
79347;BME280;68815;48.810;44.482;2023-03-31T12:37:08;100176;;;4.9;67.4
79347;BME280;68815;48.810;44.482;2023-03-31T12:40:29;100182;;;4.9;67.7
79347;BME280;68815;48.810;44.482;2023-03-31T12:43:47;100178;;;4.8;67.9
79347;BME280;68815;48.810;44.482;2023-03-31T12:47:01;100180;;;4.8;67.7
79347;BME280;68815;48.810;44.482;2023-03-31T12:50:18;100180;;;4.9;67.8
79347;BME280;68815;48.810;44.482;2023-03-31T12:53:33;100190;;;4.9;67.4
79347;BME280;68815;48.810;44.482;2023-03-31T12:57:02;100181;;;5.1;66.9
79347;BME280;68815;48.810;44.482;2023-03-31T13:00:22;100193;;;5.1;66.9
79347;BME280;68815;48.810;44.482;2023-03-31T13:03:43;100190;;;5.1;67.1
79347;BME280;68815;48.810;44.482;2023-03-31T13:06:50;100183;;;5.1;66.8
79347;BME280;68815;48.810;44.482;2023-03-31T13:09:55;100190;;;5.2;66.1
79347;BME280;68815;48.810;44.482;2023-03-31T13:13:00;100186;;;5.2;66.2
79347;BME280;68815;48.810;44.482;2023-03-31T13:16:02;100185;;;5.3;65.9
79347;BME280;68815;48.810;44.482;2023-03-31T13:19:04;100190;;;5.2;65.8
79347;BME280;68815;48.810;44.482;2023-03-31T13:22:06;100187;;;5.3;66
79347;BME280;68815;48.810;44.482;2023-03-31T13:25:39;100191;;;5.3;65.7
79347;BME280;68815;48.810;44.482;2023-03-31T13:28:43;100196;;;5.3;65.7
79347;BME280;68815;48.810;44.482;2023-03-31T13:32:06;100198;;;5.4;65.5
79347;BME280;68815;48.810;44.482;2023-03-31T13:35:16;100218;;;5.3;65.3
79347;BME280;68815;48.810;44.482;2023-03-31T13:38:28;100219;;;5.4;64.8
79347;BME280;68815;48.810;44.482;2023-03-31T13:41:42;100224;;;5.5;64.2
79347;BME280;68815;48.810;44.482;2023-03-31T13:44:59;100228;;;5.5;64.4
79347;BME280;68815;48.810;44.482;2023-03-31T13:48:23;100234;;;5.5;64.3
79347;BME280;68815;48.810;44.482;2023-03-31T13:51:34;100232;;;5.5;64.5
79347;BME280;68815;48.810;44.482;2023-03-31T13:55:00;100233;;;5.6;63.9
79347;BME280;68815;48.810;44.482;2023-03-31T13:58:13;100248;;;5.6;64
79347;BME280;68815;48.810;44.482;2023-03-31T14:01:31;100242;;;5.6;63.8
79347;BME280;68815;48.810;44.482;2023-03-31T14:04:48;100242;;;5.6;63.4
79347;BME280;68815;48.810;44.482;2023-03-31T14:07:58;100239;;;5.6;62.5
79347;BME280;68815;48.810;44.482;2023-03-31T14:11:19;100251;;;5.5;62.6
79347;BME280;68815;48.810;44.482;2023-03-31T14:14:23;100250;;;5.5;63.1
79347;BME280;68815;48.810;44.482;2023-03-31T14:17:27;100247;;;5.5;63
79347;BME280;68815;48.810;44.482;2023-03-31T14:20:34;100256;;;5.6;62.7
79347;BME280;68815;48.810;44.482;2023-03-31T14:23:46;100254;;;5.6;62.9
79347;BME280;68815;48.810;44.482;2023-03-31T14:26:56;100258;;;5.6;63
79347;BME280;68815;48.810;44.482;2023-03-31T14:30:08;100260;;;5.7;63.1
79347;BME280;68815;48.810;44.482;2023-03-31T14:33:21;100258;;;5.7;63.2
79347;BME280;68815;48.810;44.482;2023-03-31T14:36:31;100263;;;5.7;63.2
79347;BME280;68815;48.810;44.482;2023-03-31T14:39:42;100268;;;5.9;62.6
79347;BME280;68815;48.810;44.482;2023-03-31T14:42:46;100275;;;5.9;62.5
79347;BME280;68815;48.810;44.482;2023-03-31T14:45:56;100274;;;6.1;62.3
79347;BME280;68815;48.810;44.482;2023-03-31T14:49:06;100281;;;6.1;62.1
79347;BME280;68815;48.810;44.482;2023-03-31T14:52:18;100282;;;6.1;62.2
79347;BME280;68815;48.810;44.482;2023-03-31T14:55:22;100290;;;6.1;62.2
79347;BME280;68815;48.810;44.482;2023-03-31T14:58:26;100290;;;6;62.7
79347;BME280;68815;48.810;44.482;2023-03-31T15:01:31;100291;;;6;62.6
79347;BME280;68815;48.810;44.482;2023-03-31T15:04:39;100293;;;6.1;62.5
79347;BME280;68815;48.810;44.482;2023-03-31T15:07:42;100297;;;6.1;62.4
79347;BME280;68815;48.810;44.482;2023-03-31T15:10:44;100304;;;6.2;62
79347;BME280;68815;48.810;44.482;2023-03-31T15:13:50;100318;;;6.2;62.1
79347;BME280;68815;48.810;44.482;2023-03-31T15:16:52;100321;;;6.2;62.3
79347;BME280;68815;48.810;44.482;2023-03-31T15:19:55;100325;;;6.3;61.9
79347;BME280;68815;48.810;44.482;2023-03-31T15:22:58;100325;;;6.2;62
79347;BME280;68815;48.810;44.482;2023-03-31T15:26:04;100328;;;6.2;62.3
79347;BME280;68815;48.810;44.482;2023-03-31T15:29:11;100333;;;6.1;62.6
79347;BME280;68815;48.810;44.482;2023-03-31T15:32:21;100342;;;5.9;63.1
79347;BME280;68815;48.810;44.482;2023-03-31T15:35:29;100342;;;5.9;63.1
79347;BME280;68815;48.810;44.482;2023-03-31T15:38:30;100348;;;5.9;63.5
79347;BME280;68815;48.810;44.482;2023-03-31T15:41:32;100354;;;5.8;63.7
79347;BME280;68815;48.810;44.482;2023-03-31T15:44:37;100361;;;5.7;64
79347;BME280;68815;48.810;44.482;2023-03-31T15:47:47;100369;;;5.8;63.9
79347;BME280;68815;48.810;44.482;2023-03-31T15:50:50;100378;;;5.6;64.3
79347;BME280;68815;48.810;44.482;2023-03-31T15:53:52;100380;;;5.7;64.2
79347;BME280;68815;48.810;44.482;2023-03-31T15:56:58;100386;;;5.8;63.7
79347;BME280;68815;48.810;44.482;2023-03-31T16:00:00;100387;;;5.6;64.2
79347;BME280;68815;48.810;44.482;2023-03-31T16:03:04;100398;;;5.5;64.4
79347;BME280;68815;48.810;44.482;2023-03-31T16:06:19;100405;;;5.4;64.4
79347;BME280;68815;48.810;44.482;2023-03-31T16:09:25;100407;;;5.7;63.7
79347;BME280;68815;48.810;44.482;2023-03-31T16:12:32;100409;;;5.7;63.4
79347;BME280;68815;48.810;44.482;2023-03-31T16:15:39;100417;;;5.7;63.2
79347;BME280;68815;48.810;44.482;2023-03-31T16:18:45;100423;;;5.4;63.6
79347;BME280;68815;48.810;44.482;2023-03-31T16:21:50;100433;;;5.3;63.8
79347;BME280;68815;48.810;44.482;2023-03-31T16:24:54;100431;;;5.3;63.7
79347;BME280;68815;48.810;44.482;2023-03-31T16:27:57;100441;;;5.2;63.7
79347;BME280;68815;48.810;44.482;2023-03-31T16:31:00;100443;;;5.2;63.8
79347;BME280;68815;48.810;44.482;2023-03-31T16:34:03;100440;;;5.2;63.9
79347;BME280;68815;48.810;44.482;2023-03-31T16:37:04;100445;;;5.2;63.5
79347;BME280;68815;48.810;44.482;2023-03-31T16:40:07;100439;;;5.1;63.4
79347;BME280;68815;48.810;44.482;2023-03-31T16:43:11;100446;;;5.1;63.1
79347;BME280;68815;48.810;44.482;2023-03-31T16:46:13;100449;;;5;63
79347;BME280;68815;48.810;44.482;2023-03-31T16:49:14;100450;;;5.1;62.7
79347;BME280;68815;48.810;44.482;2023-03-31T16:52:15;100456;;;5.1;62.5
79347;BME280;68815;48.810;44.482;2023-03-31T16:55:17;100469;;;5.1;62.1
79347;BME280;68815;48.810;44.482;2023-03-31T16:58:18;100476;;;5;61.9
79347;BME280;68815;48.810;44.482;2023-03-31T17:01:20;100480;;;4.9;61.5
79347;BME280;68815;48.810;44.482;2023-03-31T17:04:21;100482;;;5;61.3
79347;BME280;68815;48.810;44.482;2023-03-31T17:07:22;100482;;;4.9;61.2
79347;BME280;68815;48.810;44.482;2023-03-31T17:10:24;100485;;;5;60.8
79347;BME280;68815;48.810;44.482;2023-03-31T17:13:26;100485;;;4.7;61.3
79347;BME280;68815;48.810;44.482;2023-03-31T17:16:27;100491;;;4.8;61.6
79347;BME280;68815;48.810;44.482;2023-03-31T17:19:28;100497;;;4.8;61.6
79347;BME280;68815;48.810;44.482;2023-03-31T17:22:30;100508;;;4.6;61.8
79347;BME280;68815;48.810;44.482;2023-03-31T17:25:32;100513;;;4.8;61.7
79347;BME280;68815;48.810;44.482;2023-03-31T17:28:34;100520;;;4.5;62.3
79347;BME280;68815;48.810;44.482;2023-03-31T17:31:36;100518;;;4.6;62.7
79347;BME280;68815;48.810;44.482;2023-03-31T17:34:37;100522;;;4.4;63.1
79347;BME280;68815;48.810;44.482;2023-03-31T17:37:38;100519;;;4.3;63.3
79347;BME280;68815;48.810;44.482;2023-03-31T17:40:40;100523;;;4.4;63.4
79347;BME280;68815;48.810;44.482;2023-03-31T17:43:43;100523;;;4.2;63.9
79347;BME280;68815;48.810;44.482;2023-03-31T17:46:44;100527;;;4.3;64.1
79347;BME280;68815;48.810;44.482;2023-03-31T17:49:46;100521;;;4.3;64.1
79347;BME280;68815;48.810;44.482;2023-03-31T17:52:48;100515;;;4.1;64.3